Time;durP1;ratioP1;P1;durP2;ratioP2;P2;SDS_P1;SDS_P2;PMS_P1;PMS_P2;Temp;Humidity;BMP_temperature;BMP_pressure;BME280_temperature;BME280_humidity;BME280_pressure;Samples;Min_cycle;Max_cycle;Signal;HPM_P1;HPM_P2
2021/01/10 00:01:24;;;;;;;14.15;9.07;;;;;;;;;;5031355;27;87154;-60
2021/01/10 00:03:49;;;;;;;14.27;9.32;;;;;;;;;;5025479;27;86469;-60
2021/01/10 00:06:14;;;;;;;15.52;9.90;;;;;;;;;;5028029;27;86942;-60
2021/01/10 00:08:41;;;;;;;13.93;9.25;;;;;;;;;;5033047;27;86449;-60
2021/01/10 00:11:06;;;;;;;14.90;10.07;;;;;;;;;;5026230;27;87033;-60
2021/01/10 00:13:31;;;;;;;14.75;9.95;;;;;;;;;;5028359;27;88914;-60
2021/01/10 00:15:56;;;;;;;16.00;10.27;;;;;;;;;;5021591;27;87466;-60
2021/01/10 00:18:22;;;;;;;15.73;10.05;;;;;;;;;;5012902;28;89032;-60
2021/01/10 00:20:47;;;;;;;16.30;10.70;;;;;;;;;;5015295;28;89088;-60
2021/01/10 00:23:12;;;;;;;15.48;10.73;;;;;;;;;;5012977;28;89195;-60
2021/01/10 00:25:38;;;;;;;16.53;10.67;;;;;;;;;;4995897;28;89168;-60
2021/01/10 00:28:03;;;;;;;15.97;10.30;;;;;;;;;;5012786;28;89526;-60
2021/01/10 00:30:28;;;;;;;15.48;10.32;;;;;;;;;;5012388;28;88544;-60
2021/01/10 00:32:54;;;;;;;14.57;9.98;;;;;;;;;;5014129;28;88831;-60
2021/01/10 00:35:20;;;;;;;16.02;10.48;;;;;;;;;;4996599;28;88643;-60
2021/01/10 00:37:46;;;;;;;14.70;9.70;;;;;;;;;;5016464;28;88916;-60
2021/01/10 00:40:11;;;;;;;16.45;10.88;;;;;;;;;;5013937;28;86968;-60
2021/01/10 00:42:38;;;;;;;16.20;11.35;;;;;;;;;;5014175;28;88726;-60
2021/01/10 00:45:04;;;;;;;16.33;10.48;;;;;;;;;;5013403;28;88640;-60
2021/01/10 00:47:29;;;;;;;16.08;10.65;;;;;;;;;;5012340;28;88950;-61
2021/01/10 00:49:54;;;;;;;17.48;11.68;;;;;;;;;;5011232;28;89656;-60
2021/01/10 00:52:20;;;;;;;18.02;12.02;;;;;;;;;;4995266;28;90564;-60
2021/01/10 00:54:47;;;;;;;18.13;11.48;;;;;;;;;;4997041;28;90868;-60
2021/01/10 00:57:12;;;;;;;17.52;11.75;;;;;;;;;;5008745;28;89099;-61
2021/01/10 00:59:38;;;;;;;16.52;11.05;;;;;;;;;;5013688;28;90079;-60
2021/01/10 01:02:04;;;;;;;14.52;10.10;;;;;;;;;;4994470;28;91148;-60
2021/01/10 01:04:29;;;;;;;16.63;11.25;;;;;;;;;;4995885;28;90384;-61
2021/01/10 01:06:56;;;;;;;15.70;10.57;;;;;;;;;;4994917;28;91633;-61
2021/01/10 01:09:21;;;;;;;18.38;12.60;;;;;;;;;;4997899;28;91663;-61
2021/01/10 01:11:46;;;;;;;17.20;11.57;;;;;;;;;;4964864;28;90449;-61
2021/01/10 01:14:12;;;;;;;17.88;11.95;;;;;;;;;;5018153;28;88931;-61
2021/01/10 01:16:39;;;;;;;17.33;11.85;;;;;;;;;;5017538;28;88612;-61
2021/01/10 01:19:04;;;;;;;16.70;11.07;;;;;;;;;;4999048;28;90123;-61
2021/01/10 01:21:30;;;;;;;16.80;11.70;;;;;;;;;;5000412;28;89466;-62
2021/01/10 01:23:55;;;;;;;19.07;12.67;;;;;;;;;;5017999;28;88585;-61
2021/01/10 01:26:22;;;;;;;17.33;11.98;;;;;;;;;;5017519;28;89051;-62
2021/01/10 01:28:47;;;;;;;16.95;11.63;;;;;;;;;;5016684;28;88609;-62
2021/01/10 01:31:13;;;;;;;18.10;11.75;;;;;;;;;;5017928;28;88591;-62
2021/01/10 01:33:38;;;;;;;16.55;11.63;;;;;;;;;;5004747;28;89071;-62
2021/01/10 01:36:04;;;;;;;16.65;11.38;;;;;;;;;;4999207;28;88807;-62
2021/01/10 01:38:29;;;;;;;17.92;11.43;;;;;;;;;;5017688;28;88968;-62
2021/01/10 01:40:58;;;;;;;15.82;10.73;;;;;;;;;;5020918;28;88696;-62
2021/01/10 01:43:23;;;;;;;17.98;11.85;;;;;;;;;;5016840;28;89053;-62
2021/01/10 01:45:48;;;;;;;16.73;11.65;;;;;;;;;;5014476;28;88649;-62
2021/01/10 01:48:14;;;;;;;17.80;11.52;;;;;;;;;;4999755;28;89099;-62
2021/01/10 01:50:39;;;;;;;16.75;11.68;;;;;;;;;;4999380;28;88775;-62
2021/01/10 01:53:04;;;;;;;16.83;12.07;;;;;;;;;;4999125;28;88596;-62
2021/01/10 01:55:29;;;;;;;18.75;12.07;;;;;;;;;;5017122;28;88656;-62
2021/01/10 01:57:55;;;;;;;17.25;11.63;;;;;;;;;;5017023;28;88623;-62
2021/01/10 02:00:20;;;;;;;17.80;11.70;;;;;;;;;;4982837;28;89448;-62
2021/01/10 02:02:45;;;;;;;17.05;12.48;;;;;;;;;;4982162;28;90215;-62
2021/01/10 02:05:12;;;;;;;17.35;11.90;;;;;;;;;;5013402;28;89431;-62
2021/01/10 02:07:40;;;;;;;17.85;12.55;;;;;;;;;;5002061;28;89024;-62
2021/01/10 02:10:11;;;;;;;17.00;11.73;;;;;;;;;;5013242;28;89275;-62
2021/01/10 02:12:37;;;;;;;16.85;11.73;;;;;;;;;;5001261;28;89537;-62
2021/01/10 02:15:07;;;;;;;15.70;10.93;;;;;;;;;;4996054;28;88596;-62
2021/01/10 02:17:32;;;;;;;17.35;11.35;;;;;;;;;;5016685;28;88588;-62
2021/01/10 02:19:59;;;;;;;16.60;10.88;;;;;;;;;;4998816;28;88648;-62
2021/01/10 02:22:27;;;;;;;16.13;11.32;;;;;;;;;;4998878;28;88745;-62
2021/01/10 02:24:53;;;;;;;17.90;11.30;;;;;;;;;;4998940;28;89383;-62
2021/01/10 02:27:18;;;;;;;16.02;10.77;;;;;;;;;;4999128;28;88553;-62
2021/01/10 02:29:43;;;;;;;17.00;11.27;;;;;;;;;;4998876;28;89780;-62
2021/01/10 02:32:09;;;;;;;16.00;10.82;;;;;;;;;;4998688;28;88768;-62
2021/01/10 02:34:34;;;;;;;17.08;11.48;;;;;;;;;;4982083;28;88707;-62
2021/01/10 02:37:10;;;;;;;16.45;11.38;;;;;;;;;;4998594;28;88572;-62
2021/01/10 02:39:50;;;;;;;17.77;11.50;;;;;;;;;;5018175;28;88597;-62
2021/01/10 02:42:20;;;;;;;16.83;11.45;;;;;;;;;;5014518;28;88801;-62
2021/01/10 02:44:54;;;;;;;18.77;11.60;;;;;;;;;;4968298;28;89303;-62
2021/01/10 02:47:19;;;;;;;15.68;10.68;;;;;;;;;;4980217;28;90308;-62
2021/01/10 02:49:44;;;;;;;17.85;11.52;;;;;;;;;;4998758;28;88606;-62
2021/01/10 02:52:10;;;;;;;17.63;11.65;;;;;;;;;;4998661;28;89077;-62
2021/01/10 02:54:35;;;;;;;16.58;10.98;;;;;;;;;;4998975;28;91076;-62
2021/01/10 02:57:01;;;;;;;17.55;11.02;;;;;;;;;;4996036;28;88565;-62
2021/01/10 02:59:26;;;;;;;18.73;11.70;;;;;;;;;;5015758;28;88663;-62
2021/01/10 03:01:52;;;;;;;18.50;11.63;;;;;;;;;;4965259;28;91720;-62
2021/01/10 03:04:18;;;;;;;19.52;12.30;;;;;;;;;;5003720;28;88598;-62
2021/01/10 03:06:43;;;;;;;19.23;11.53;;;;;;;;;;5000430;28;89374;-62
2021/01/10 03:09:08;;;;;;;17.80;11.27;;;;;;;;;;4976888;28;90988;-62
2021/01/10 03:11:34;;;;;;;18.38;11.88;;;;;;;;;;5016205;28;88691;-62
2021/01/10 03:13:59;;;;;;;18.45;11.75;;;;;;;;;;5016213;28;88560;-62
2021/01/10 03:16:24;;;;;;;17.30;11.25;;;;;;;;;;5016473;28;88701;-62
2021/01/10 03:18:50;;;;;;;17.35;11.05;;;;;;;;;;4998477;28;89275;-62
2021/01/10 03:21:15;;;;;;;18.67;12.30;;;;;;;;;;5015234;28;88768;-62
2021/01/10 03:23:40;;;;;;;20.48;12.18;;;;;;;;;;5000576;28;89416;-62
2021/01/10 03:26:05;;;;;;;18.17;11.67;;;;;;;;;;5015956;28;88576;-62
2021/01/10 03:28:31;;;;;;;18.42;12.27;;;;;;;;;;5014404;28;88698;-62
2021/01/10 03:30:56;;;;;;;18.92;12.32;;;;;;;;;;5015613;28;88547;-62
2021/01/10 03:33:21;;;;;;;20.13;12.38;;;;;;;;;;5011993;28;88549;-62
2021/01/10 03:35:47;;;;;;;18.05;11.75;;;;;;;;;;5000332;28;88660;-62
2021/01/10 03:38:12;;;;;;;19.13;12.10;;;;;;;;;;5016674;28;89442;-62
2021/01/10 03:40:37;;;;;;;18.65;11.88;;;;;;;;;;5018069;28;89093;-62
2021/01/10 03:43:03;;;;;;;19.45;12.02;;;;;;;;;;4995692;28;89374;-62
2021/01/10 03:45:28;;;;;;;21.05;13.00;;;;;;;;;;5013267;28;89715;-62
2021/01/10 03:47:53;;;;;;;18.63;11.75;;;;;;;;;;4997961;28;89291;-62
2021/01/10 03:50:19;;;;;;;19.98;12.20;;;;;;;;;;5011637;28;88838;-62
2021/01/10 03:52:44;;;;;;;19.75;12.60;;;;;;;;;;5016477;28;88604;-62
2021/01/10 03:55:09;;;;;;;20.40;12.63;;;;;;;;;;5001284;28;88942;-62
2021/01/10 03:57:38;;;;;;;22.63;13.90;;;;;;;;;;5000401;28;88664;-62
2021/01/10 04:00:07;;;;;;;21.65;13.68;;;;;;;;;;4998596;28;89045;-62
2021/01/10 04:02:33;;;;;;;25.55;14.93;;;;;;;;;;4987869;28;89482;-62
2021/01/10 04:04:58;;;;;;;25.58;14.80;;;;;;;;;;5001245;28;89316;-62
2021/01/10 04:07:24;;;;;;;23.73;14.43;;;;;;;;;;5019157;28;89253;-62
2021/01/10 04:09:49;;;;;;;24.98;14.73;;;;;;;;;;5000679;28;88664;-62
2021/01/10 04:12:14;;;;;;;23.60;14.65;;;;;;;;;;4996010;28;88585;-62
2021/01/10 04:14:40;;;;;;;24.73;14.17;;;;;;;;;;5021482;28;89030;-62
2021/01/10 04:17:05;;;;;;;27.17;15.63;;;;;;;;;;5000469;28;89165;-62
2021/01/10 04:19:30;;;;;;;24.10;14.93;;;;;;;;;;5018973;28;88907;-62
2021/01/10 04:21:56;;;;;;;25.85;14.57;;;;;;;;;;5017691;28;88622;-62
2021/01/10 04:24:21;;;;;;;27.08;15.88;;;;;;;;;;5017659;28;88609;-62
2021/01/10 04:26:47;;;;;;;26.97;15.47;;;;;;;;;;4983958;28;88727;-62
2021/01/10 04:29:13;;;;;;;24.85;15.02;;;;;;;;;;5018357;28;89517;-62
2021/01/10 04:31:39;;;;;;;27.90;16.40;;;;;;;;;;5000721;28;89546;-62
2021/01/10 04:34:04;;;;;;;27.42;15.50;;;;;;;;;;5000440;28;89186;-62
2021/01/10 04:36:29;;;;;;;23.80;13.82;;;;;;;;;;5000632;28;88789;-62
2021/01/10 04:38:56;;;;;;;21.02;12.63;;;;;;;;;;5000453;28;89055;-62
2021/01/10 04:41:21;;;;;;;21.95;13.32;;;;;;;;;;5002739;28;88810;-62
2021/01/10 04:43:46;;;;;;;22.30;14.05;;;;;;;;;;4999970;28;90603;-62
2021/01/10 04:46:11;;;;;;;20.43;13.20;;;;;;;;;;5018488;28;89031;-62
2021/01/10 04:48:37;;;;;;;21.83;13.07;;;;;;;;;;4997998;28;88752;-62
2021/01/10 04:51:02;;;;;;;20.40;12.95;;;;;;;;;;5018037;28;89499;-62
2021/01/10 04:53:27;;;;;;;19.55;12.43;;;;;;;;;;5002019;28;90208;-62
2021/01/10 04:55:56;;;;;;;20.35;13.68;;;;;;;;;;5000459;28;88660;-62
2021/01/10 04:58:21;;;;;;;20.25;12.45;;;;;;;;;;5000510;28;88706;-62
2021/01/10 05:00:46;;;;;;;18.70;12.50;;;;;;;;;;5000329;28;88750;-62
2021/01/10 05:03:14;;;;;;;19.17;11.73;;;;;;;;;;4999520;28;89824;-62
2021/01/10 05:05:39;;;;;;;17.52;11.13;;;;;;;;;;5000251;28;89321;-62
2021/01/10 05:08:11;;;;;;;19.55;12.35;;;;;;;;;;4980952;28;89152;-62
2021/01/10 05:10:36;;;;;;;21.85;13.15;;;;;;;;;;5016386;28;88564;-63
2021/01/10 05:13:02;;;;;;;20.90;13.38;;;;;;;;;;5000327;28;88981;-62
2021/01/10 05:15:27;;;;;;;20.77;13.20;;;;;;;;;;5003016;28;89088;-63
2021/01/10 05:17:53;;;;;;;23.10;13.85;;;;;;;;;;5001276;28;90201;-62
2021/01/10 05:20:19;;;;;;;20.77;12.95;;;;;;;;;;5000313;28;88792;-62
2021/01/10 05:22:44;;;;;;;22.13;13.02;;;;;;;;;;5000115;28;88757;-62
2021/01/10 05:25:12;;;;;;;21.03;13.50;;;;;;;;;;4996180;28;89786;-62
2021/01/10 05:27:38;;;;;;;23.50;13.95;;;;;;;;;;5019147;28;89023;-62
2021/01/10 05:30:04;;;;;;;22.13;14.07;;;;;;;;;;5000019;28;88830;-62
2021/01/10 05:32:30;;;;;;;20.80;13.48;;;;;;;;;;4983085;28;89493;-62
2021/01/10 05:34:59;;;;;;;23.10;14.05;;;;;;;;;;5021382;28;89760;-62
2021/01/10 05:37:24;;;;;;;22.15;13.65;;;;;;;;;;5018625;28;88636;-62
2021/01/10 05:39:50;;;;;;;21.00;13.63;;;;;;;;;;5018869;28;89380;-62
2021/01/10 05:42:15;;;;;;;21.97;13.57;;;;;;;;;;5015738;28;88603;-62
2021/01/10 05:44:40;;;;;;;20.90;12.98;;;;;;;;;;4999612;28;89100;-62
2021/01/10 05:47:06;;;;;;;24.23;14.83;;;;;;;;;;5013475;28;89936;-62
2021/01/10 05:49:31;;;;;;;21.48;14.00;;;;;;;;;;5017396;28;89284;-62
2021/01/10 05:52:05;;;;;;;23.02;13.70;;;;;;;;;;5016986;28;89176;-62
2021/01/10 05:54:37;;;;;;;21.95;13.50;;;;;;;;;;5017646;28;89392;-63
2021/01/10 05:57:02;;;;;;;21.05;12.68;;;;;;;;;;5015233;28;88953;-62
2021/01/10 05:59:29;;;;;;;20.38;13.27;;;;;;;;;;5015052;28;88701;-62
2021/01/10 06:01:54;;;;;;;19.70;12.93;;;;;;;;;;5018629;28;89039;-62
2021/01/10 06:04:23;;;;;;;20.92;13.30;;;;;;;;;;5016892;28;89441;-62
2021/01/10 06:06:48;;;;;;;17.95;11.88;;;;;;;;;;4998869;28;90571;-62
2021/01/10 06:09:13;;;;;;;18.20;12.80;;;;;;;;;;5013981;28;89303;-62
2021/01/10 06:11:39;;;;;;;19.50;13.47;;;;;;;;;;5001674;28;88795;-62
2021/01/10 06:14:04;;;;;;;20.52;14.70;;;;;;;;;;5016144;28;89753;-62
2021/01/10 06:16:36;;;;;;;20.48;13.45;;;;;;;;;;4998701;28;88506;-62
2021/01/10 06:19:01;;;;;;;;;;;;;;;;;;4982484;28;90327;-62
2021/01/10 06:21:27;;;;;;;20.50;13.20;;;;;;;;;;5000120;28;87846;-62
2021/01/10 06:23:59;;;;;;;20.17;12.75;;;;;;;;;;4998939;28;88656;-62
2021/01/10 06:26:24;;;;;;;;;;;;;;;;;;5017490;28;88685;-62
2021/01/10 06:28:50;;;;;;;19.27;12.90;;;;;;;;;;5017026;28;88715;-62
2021/01/10 06:31:18;;;;;;;20.55;13.85;;;;;;;;;;5014946;28;88768;-62
2021/01/10 06:33:43;;;;;;;20.38;13.43;;;;;;;;;;5016727;28;88666;-62
2021/01/10 06:36:09;;;;;;;20.90;13.50;;;;;;;;;;4998654;28;88982;-62
2021/01/10 06:38:37;;;;;;;19.98;13.98;;;;;;;;;;5015564;28;89194;-62
2021/01/10 06:41:06;;;;;;;19.65;13.35;;;;;;;;;;4998669;28;91785;-62
2021/01/10 06:43:31;;;;;;;21.33;13.65;;;;;;;;;;5016915;28;88612;-62
2021/01/10 06:45:56;;;;;;;20.63;14.13;;;;;;;;;;4979807;28;89213;-62
2021/01/10 06:48:23;;;;;;;23.38;14.52;;;;;;;;;;4980959;28;88851;-62
2021/01/10 06:50:49;;;;;;;21.50;14.07;;;;;;;;;;5016295;28;89078;-62
2021/01/10 06:53:14;;;;;;;20.30;13.38;;;;;;;;;;4998772;28;91054;-62
2021/01/10 06:55:40;;;;;;;20.58;13.65;;;;;;;;;;5016409;28;88738;-62
2021/01/10 06:58:08;;;;;;;20.83;13.65;;;;;;;;;;4998347;28;89261;-62
2021/01/10 07:00:49;;;;;;;20.60;13.15;;;;;;;;;;5016566;28;88803;-62
2021/01/10 07:03:14;;;;;;;21.98;14.05;;;;;;;;;;4993339;28;90447;-62
2021/01/10 07:06:01;;;;;;;19.00;13.20;;;;;;;;;;5015610;28;88960;-62
2021/01/10 07:08:39;;;;;;;19.30;12.93;;;;;;;;;;5017007;28;88694;-62
2021/01/10 07:11:20;;;;;;;21.60;14.40;;;;;;;;;;4984240;28;88741;-62
2021/01/10 07:13:45;;;;;;;20.77;13.68;;;;;;;;;;5013393;28;89375;-62
2021/01/10 07:16:20;;;;;;;19.40;13.05;;;;;;;;;;4982973;28;89271;-62
2021/01/10 07:18:55;;;;;;;21.63;14.05;;;;;;;;;;5016208;28;88593;-62
2021/01/10 07:21:39;;;;;;;20.80;13.75;;;;;;;;;;4999083;28;88694;-62
2021/01/10 07:24:14;;;;;;;19.13;13.40;;;;;;;;;;4996220;28;89461;-62
2021/01/10 07:26:45;;;;;;;21.38;13.27;;;;;;;;;;5020744;28;88843;-62
2021/01/10 07:29:28;;;;;;;20.20;13.23;;;;;;;;;;5017725;28;88676;-61
2021/01/10 07:31:54;;;;;;;18.83;13.02;;;;;;;;;;5018596;28;88673;-62
2021/01/10 07:34:20;;;;;;;22.33;14.02;;;;;;;;;;4982547;28;90666;-62
2021/01/10 07:36:46;;;;;;;23.20;14.68;;;;;;;;;;4970122;28;91791;-62
2021/01/10 07:39:11;;;;;;;23.55;14.82;;;;;;;;;;5002038;28;88701;-62
2021/01/10 07:41:36;;;;;;;22.70;14.80;;;;;;;;;;5001861;28;89087;-62
2021/01/10 07:44:02;;;;;;;20.52;13.88;;;;;;;;;;4985375;28;91981;-62
2021/01/10 07:46:46;;;;;;;20.05;13.40;;;;;;;;;;5020840;28;90134;-62
2021/01/10 07:49:11;;;;;;;22.30;13.55;;;;;;;;;;5017671;28;88694;-62
2021/01/10 07:51:36;;;;;;;20.27;14.02;;;;;;;;;;4987651;28;89203;-62
2021/01/10 07:54:02;;;;;;;19.15;13.07;;;;;;;;;;4973577;28;90655;-62
2021/01/10 07:56:27;;;;;;;20.52;13.98;;;;;;;;;;4984615;28;89449;-62
2021/01/10 07:59:12;;;;;;;22.05;14.35;;;;;;;;;;5017548;28;88497;-62
2021/01/10 08:01:50;;;;;;;21.70;15.60;;;;;;;;;;5000219;28;89183;-62
2021/01/10 08:04:28;;;;;;;18.73;13.77;;;;;;;;;;5017295;28;88667;-62
2021/01/10 08:06:57;;;;;;;18.33;12.15;;;;;;;;;;5001678;28;89131;-63
2021/01/10 08:09:22;;;;;;;20.42;14.90;;;;;;;;;;4986109;28;91191;-61
2021/01/10 08:11:54;;;;;;;16.77;11.90;;;;;;;;;;5002720;28;90460;-61
2021/01/10 08:14:19;;;;;;;13.90;9.75;;;;;;;;;;5000634;28;88688;-61
2021/01/10 08:16:44;;;;;;;14.13;8.73;;;;;;;;;;4987347;28;89415;-62
2021/01/10 08:19:09;;;;;;;13.30;8.93;;;;;;;;;;5023571;28;87950;-62
2021/01/10 08:21:35;;;;;;;13.35;9.52;;;;;;;;;;5021866;28;88918;-63
2021/01/10 08:24:00;;;;;;;14.13;9.73;;;;;;;;;;4982867;28;90044;-62
2021/01/10 08:26:25;;;;;;;13.57;9.55;;;;;;;;;;5003688;28;89670;-62
2021/01/10 08:28:52;;;;;;;11.68;8.65;;;;;;;;;;5003493;28;88593;-63
2021/01/10 08:31:19;;;;;;;13.30;9.68;;;;;;;;;;5001738;28;87122;-63
2021/01/10 08:33:44;;;;;;;10.55;7.75;;;;;;;;;;5004114;28;88601;-62
2021/01/10 08:36:10;;;;;;;11.95;7.80;;;;;;;;;;5022228;28;88560;-63
2021/01/10 08:38:37;;;;;;;10.23;7.70;;;;;;;;;;5020188;28;89419;-62
2021/01/10 08:41:02;;;;;;;10.68;8.30;;;;;;;;;;5018469;28;89163;-62
2021/01/10 08:43:27;;;;;;;11.07;7.35;;;;;;;;;;5020595;28;88626;-62
2021/01/10 08:45:52;;;;;;;10.32;7.25;;;;;;;;;;5021363;28;87934;-62
2021/01/10 08:48:18;;;;;;;10.40;6.70;;;;;;;;;;5002677;28;88728;-62
2021/01/10 08:50:43;;;;;;;9.77;6.00;;;;;;;;;;5003693;28;88157;-62
2021/01/10 08:53:08;;;;;;;9.93;6.32;;;;;;;;;;5019663;28;87904;-63
2021/01/10 08:55:40;;;;;;;9.85;6.72;;;;;;;;;;5003455;28;89417;-63
2021/01/10 08:58:07;;;;;;;8.68;6.15;;;;;;;;;;5015019;28;88675;-63
2021/01/10 09:00:33;;;;;;;9.18;6.22;;;;;;;;;;5019482;28;88299;-63
2021/01/10 09:03:11;;;;;;;9.30;6.68;;;;;;;;;;5019308;28;88976;-63
2021/01/10 09:05:36;;;;;;;8.75;6.18;;;;;;;;;;5021063;28;88804;-62
2021/01/10 09:08:02;;;;;;;9.38;6.75;;;;;;;;;;5018700;28;88246;-61
2021/01/10 09:10:28;;;;;;;9.57;6.57;;;;;;;;;;5020358;28;88086;-61
2021/01/10 09:12:57;;;;;;;9.05;6.47;;;;;;;;;;4999819;28;88671;-61
2021/01/10 09:15:31;;;;;;;10.13;7.43;;;;;;;;;;5019795;28;87987;-63
2021/01/10 09:17:56;;;;;;;10.43;7.13;;;;;;;;;;5021349;28;88014;-63
2021/01/10 09:20:25;;;;;;;11.85;7.65;;;;;;;;;;5019528;28;87688;-63
2021/01/10 09:22:50;;;;;;;13.75;9.10;;;;;;;;;;5021490;28;88381;-63
2021/01/10 09:25:16;;;;;;;14.70;10.00;;;;;;;;;;4986903;28;87967;-63
2021/01/10 09:28:00;;;;;;;13.63;9.00;;;;;;;;;;5003185;28;90348;-63
2021/01/10 09:30:29;;;;;;;14.90;9.77;;;;;;;;;;4995011;28;89247;-64
2021/01/10 09:32:54;;;;;;;16.17;10.57;;;;;;;;;;4988210;28;88678;-64
2021/01/10 09:35:19;;;;;;;17.73;11.30;;;;;;;;;;4998742;28;88706;-64
2021/01/10 09:37:45;;;;;;;17.63;11.70;;;;;;;;;;4987802;28;88697;-63
2021/01/10 09:40:10;;;;;;;17.73;11.52;;;;;;;;;;5015920;28;88859;-63
2021/01/10 09:42:45;;;;;;;17.70;11.50;;;;;;;;;;4998272;28;89153;-64
2021/01/10 09:45:11;;;;;;;19.75;13.25;;;;;;;;;;5016186;28;88726;-63
2021/01/10 09:47:37;;;;;;;19.88;12.73;;;;;;;;;;4983732;28;89197;-65
2021/01/10 09:50:09;;;;;;;21.48;13.65;;;;;;;;;;4981913;28;88998;-64
2021/01/10 09:52:44;;;;;;;19.27;13.07;;;;;;;;;;5004582;28;90975;-63
2021/01/10 09:55:09;;;;;;;18.35;12.02;;;;;;;;;;5021564;28;88576;-63
2021/01/10 09:57:38;;;;;;;18.50;11.88;;;;;;;;;;5014175;28;88688;-64
2021/01/10 10:00:05;;;;;;;21.55;13.75;;;;;;;;;;5000082;28;90435;-63
2021/01/10 10:02:37;;;;;;;20.15;13.43;;;;;;;;;;5018396;28;88710;-63
2021/01/10 10:05:08;;;;;;;19.35;12.77;;;;;;;;;;5000633;28;89183;-68
2021/01/10 10:07:34;;;;;;;21.58;13.48;;;;;;;;;;5014664;28;89207;-66
2021/01/10 10:10:00;;;;;;;17.85;11.57;;;;;;;;;;4997766;28;88778;-64
2021/01/10 10:12:25;;;;;;;19.08;11.25;;;;;;;;;;4987547;28;89090;-65
2021/01/10 10:14:52;;;;;;;18.05;10.98;;;;;;;;;;5020148;28;88632;-65
2021/01/10 10:17:20;;;;;;;17.38;10.80;;;;;;;;;;5003071;28;88838;-65
2021/01/10 10:19:46;;;;;;;15.52;10.25;;;;;;;;;;5016063;28;89384;-65
2021/01/10 10:22:18;;;;;;;16.98;10.20;;;;;;;;;;5011071;28;89546;-65
2021/01/10 10:24:43;;;;;;;17.05;10.85;;;;;;;;;;5001728;28;88970;-65
2021/01/10 10:27:08;;;;;;;17.23;11.15;;;;;;;;;;4998990;28;88751;-64
2021/01/10 10:29:34;;;;;;;16.83;10.85;;;;;;;;;;4998877;28;89402;-64
2021/01/10 10:31:59;;;;;;;16.88;10.80;;;;;;;;;;4998294;28;88655;-65
2021/01/10 10:34:25;;;;;;;14.98;9.15;;;;;;;;;;5018117;28;89317;-65
2021/01/10 10:36:51;;;;;;;22.98;17.23;;;;;;;;;;4968004;28;88555;-65
2021/01/10 10:39:16;;;;;;;22.30;17.30;;;;;;;;;;5019697;28;88687;-64
2021/01/10 10:41:41;;;;;;;17.10;11.07;;;;;;;;;;5022406;28;89239;-64
2021/01/10 10:44:07;;;;;;;18.23;12.70;;;;;;;;;;4996444;28;91987;-65
2021/01/10 10:46:32;;;;;;;17.88;11.82;;;;;;;;;;5013009;28;88595;-65
2021/01/10 10:48:57;;;;;;;18.85;12.40;;;;;;;;;;5018512;28;88611;-64
2021/01/10 10:51:27;;;;;;;15.40;9.83;;;;;;;;;;5020456;28;88829;-64
2021/01/10 10:53:53;;;;;;;19.85;13.35;;;;;;;;;;5023193;28;89886;-64
2021/01/10 10:56:18;;;;;;;15.15;9.55;;;;;;;;;;5017061;28;88648;-65
2021/01/10 10:58:43;;;;;;;13.68;8.50;;;;;;;;;;5021159;28;87252;-64
2021/01/10 11:01:09;;;;;;;13.77;8.38;;;;;;;;;;4998498;28;88801;-65
2021/01/10 11:03:34;;;;;;;13.03;8.17;;;;;;;;;;5021220;28;88414;-65
2021/01/10 11:05:59;;;;;;;13.27;8.40;;;;;;;;;;5013753;28;89360;-65
2021/01/10 11:08:24;;;;;;;13.80;9.00;;;;;;;;;;5022131;28;88000;-65
2021/01/10 11:10:50;;;;;;;13.90;8.70;;;;;;;;;;5020339;28;88628;-65
2021/01/10 11:13:15;;;;;;;12.88;8.35;;;;;;;;;;5019869;28;88334;-65
2021/01/10 11:15:40;;;;;;;13.98;8.70;;;;;;;;;;5024294;28;88101;-65
2021/01/10 11:18:06;;;;;;;13.40;7.80;;;;;;;;;;5017680;28;88368;-65
2021/01/10 11:20:31;;;;;;;13.00;8.05;;;;;;;;;;5024344;28;88907;-65
2021/01/10 11:22:57;;;;;;;11.85;7.60;;;;;;;;;;5023201;28;87385;-65
2021/01/10 11:25:22;;;;;;;11.15;7.00;;;;;;;;;;5017566;28;88563;-65
2021/01/10 11:27:47;;;;;;;12.73;7.95;;;;;;;;;;5018057;28;88424;-65
2021/01/10 11:30:13;;;;;;;11.83;7.37;;;;;;;;;;5020067;28;89077;-64
2021/01/10 11:32:38;;;;;;;12.20;7.40;;;;;;;;;;5001566;28;89036;-65
2021/01/10 11:35:04;;;;;;;37.08;19.65;;;;;;;;;;5019709;28;88046;-64
2021/01/10 11:37:29;;;;;;;54.80;28.08;;;;;;;;;;5021393;28;88518;-64
2021/01/10 11:39:54;;;;;;;11.43;7.37;;;;;;;;;;5022085;28;89546;-64
2021/01/10 11:42:20;;;;;;;11.43;7.65;;;;;;;;;;5016500;28;87877;-64
2021/01/10 11:44:45;;;;;;;9.82;6.32;;;;;;;;;;5018665;28;88582;-65
2021/01/10 11:47:11;;;;;;;11.30;7.25;;;;;;;;;;5010293;28;87307;-65
2021/01/10 11:49:36;;;;;;;10.33;6.43;;;;;;;;;;5020190;28;88537;-70
2021/01/10 11:52:01;;;;;;;10.23;6.60;;;;;;;;;;5019893;28;87913;-65
2021/01/10 11:54:27;;;;;;;8.85;5.30;;;;;;;;;;5021165;28;89478;-64
2021/01/10 11:56:52;;;;;;;7.53;4.07;;;;;;;;;;5018896;28;89445;-66
2021/01/10 11:59:17;;;;;;;6.93;4.00;;;;;;;;;;5013639;28;88007;-64
2021/01/10 12:01:43;;;;;;;11.25;5.40;;;;;;;;;;5002548;28;88063;-65
2021/01/10 12:04:08;;;;;;;15.80;8.52;;;;;;;;;;5020615;28;87847;-65
2021/01/10 12:06:34;;;;;;;12.68;6.38;;;;;;;;;;5002229;28;88032;-65
2021/01/10 12:08:59;;;;;;;8.63;4.65;;;;;;;;;;5017957;28;88108;-65
2021/01/10 12:11:25;;;;;;;16.38;9.23;;;;;;;;;;5022071;27;88804;-65
2021/01/10 12:13:51;;;;;;;8.52;5.03;;;;;;;;;;5008553;28;87868;-64
2021/01/10 12:16:17;;;;;;;7.97;5.30;;;;;;;;;;5023944;28;88271;-65
2021/01/10 12:18:42;;;;;;;10.05;5.38;;;;;;;;;;5023671;28;89264;-65
2021/01/10 12:21:11;;;;;;;13.65;7.85;;;;;;;;;;5024289;28;88872;-64
2021/01/10 12:23:36;;;;;;;11.00;6.57;;;;;;;;;;5022603;28;88714;-65
2021/01/10 12:26:01;;;;;;;9.30;5.93;;;;;;;;;;5022239;28;87946;-65
2021/01/10 12:28:27;;;;;;;9.43;5.97;;;;;;;;;;5018888;28;87993;-65
2021/01/10 12:30:52;;;;;;;7.72;5.13;;;;;;;;;;4996026;28;88210;-65
2021/01/10 12:33:17;;;;;;;7.93;4.83;;;;;;;;;;5018631;28;88588;-64
2021/01/10 12:35:43;;;;;;;7.88;4.75;;;;;;;;;;5027278;28;88570;-64
2021/01/10 12:38:08;;;;;;;12.73;9.07;;;;;;;;;;5018905;28;88677;-64
2021/01/10 12:40:33;;;;;;;11.13;7.53;;;;;;;;;;5024147;28;87932;-65
2021/01/10 12:42:59;;;;;;;7.88;4.88;;;;;;;;;;5000751;28;88679;-65
2021/01/10 12:45:24;;;;;;;9.45;5.22;;;;;;;;;;5021776;28;87998;-65
2021/01/10 12:47:49;;;;;;;9.55;6.03;;;;;;;;;;5024226;28;88664;-65
2021/01/10 12:50:15;;;;;;;9.20;4.70;;;;;;;;;;5022045;28;88010;-64
2021/01/10 12:52:40;;;;;;;10.23;6.00;;;;;;;;;;4987549;28;87884;-64
2021/01/10 12:55:06;;;;;;;10.65;5.88;;;;;;;;;;4999163;28;90047;-64
2021/01/10 12:57:32;;;;;;;8.95;4.97;;;;;;;;;;5001474;28;90550;-64
2021/01/10 12:59:57;;;;;;;7.75;4.22;;;;;;;;;;5025569;28;87421;-64
2021/01/10 13:02:22;;;;;;;6.85;3.78;;;;;;;;;;5020132;28;88666;-64
2021/01/10 13:04:48;;;;;;;7.43;3.80;;;;;;;;;;5024391;28;88315;-65
2021/01/10 13:07:13;;;;;;;5.97;3.45;;;;;;;;;;5020061;28;90169;-64
2021/01/10 13:09:38;;;;;;;7.55;4.07;;;;;;;;;;5021244;28;87966;-64
2021/01/10 13:12:04;;;;;;;5.93;3.45;;;;;;;;;;5017782;28;88920;-64
2021/01/10 13:14:29;;;;;;;5.97;3.35;;;;;;;;;;5015308;28;88057;-64
2021/01/10 13:16:55;;;;;;;7.82;4.00;;;;;;;;;;5005621;28;88512;-65
2021/01/10 13:19:20;;;;;;;8.18;4.97;;;;;;;;;;5019113;28;88235;-65
2021/01/10 13:21:46;;;;;;;9.07;5.28;;;;;;;;;;4995751;28;88665;-64
2021/01/10 13:24:11;;;;;;;10.02;5.80;;;;;;;;;;5025831;28;87099;-65
2021/01/10 13:26:37;;;;;;;7.88;4.20;;;;;;;;;;5002874;28;88007;-65
2021/01/10 13:29:02;;;;;;;6.88;3.75;;;;;;;;;;5023780;28;87999;-64
2021/01/10 13:31:31;;;;;;;7.38;3.60;;;;;;;;;;4999791;28;89320;-65
2021/01/10 13:33:57;;;;;;;9.75;5.30;;;;;;;;;;5021311;28;88137;-65
2021/01/10 13:36:22;;;;;;;7.35;4.30;;;;;;;;;;5022681;28;87902;-65
2021/01/10 13:38:50;;;;;;;9.85;4.80;;;;;;;;;;5025754;28;87763;-65
2021/01/10 13:41:16;;;;;;;5.90;3.40;;;;;;;;;;5003174;28;88178;-66
2021/01/10 13:43:41;;;;;;;6.40;3.45;;;;;;;;;;5025497;28;87938;-64
2021/01/10 13:46:10;;;;;;;6.15;3.53;;;;;;;;;;5021158;28;88712;-64
2021/01/10 13:48:37;;;;;;;6.57;3.80;;;;;;;;;;5017163;28;87260;-64
2021/01/10 13:51:02;;;;;;;6.68;3.60;;;;;;;;;;5021002;28;87925;-66
2021/01/10 13:53:27;;;;;;;8.20;4.25;;;;;;;;;;5014115;28;87781;-64
2021/01/10 13:55:53;;;;;;;8.60;4.13;;;;;;;;;;5020453;28;88500;-64
2021/01/10 13:58:18;;;;;;;7.30;4.03;;;;;;;;;;5015661;28;88044;-65
2021/01/10 14:00:45;;;;;;;7.13;3.85;;;;;;;;;;5002526;28;89240;-64
2021/01/10 14:03:10;;;;;;;6.68;3.85;;;;;;;;;;5022299;28;87791;-64
2021/01/10 14:05:38;;;;;;;8.32;4.32;;;;;;;;;;5006996;28;88044;-64
2021/01/10 14:08:04;;;;;;;8.55;4.68;;;;;;;;;;5019438;28;87918;-64
2021/01/10 14:10:29;;;;;;;14.73;8.32;;;;;;;;;;5023478;28;88639;-64
2021/01/10 14:12:54;;;;;;;13.70;8.00;;;;;;;;;;5020211;28;88677;-64
2021/01/10 14:15:20;;;;;;;12.90;5.82;;;;;;;;;;5022117;28;88461;-64
2021/01/10 14:17:45;;;;;;;12.73;7.28;;;;;;;;;;5025121;28;87956;-63
2021/01/10 14:20:10;;;;;;;8.20;4.65;;;;;;;;;;4997117;28;88900;-63